Portada
METAR-TAF:

METAR-TAF

Aeroports :

Doha, Qatar

latitud: 25-15-40N, longitud: 051-33-54E, altitud: 11 m

Observació

L'informe es va fer fa 21 minuts, a les 15:30 UTC
Vent 4 kt del Nord, variant entre Nord/Nord-Oest i Est/Nord-Est
Temperatura 26°C
Humitat 58%
Pressió 1016 hPa
Visibilitat 10 km o més
sense núvols per sota de 1500 mi sense presència de cumulonimbus.

METAR: OTBD 011530Z 01004KT 340V060 CAVOK 26/17 Q1016 NOSIG

Hora: 18:51 (15:51 UTC)

Pronòstic

L'informe es va fer fa 4 hores i 43 minuts, a les 11:08 UTC
Pronòstic vàlid del 01 a les 12 UTC al 02 a les 18 UTC
Vent 7 kt del Oest/Nord-Oest
Visibilitat: 8000 m
Temporalment
l' 01 a les 12 UTC al 01 a les 16 UTC
Vent 7 kt del Est/Nord-Est
Temporalment
l' 01 a les 17 UTC al 01 a les 20 UTC
Vent 7 kt del Nord
Probabilitat 30% :
Temporalment
l' 01 a les 21 UTC al 02 a les 05 UTC
Visibilitat: 5000 m
calitja

TAF: OTBD 011108Z 0112/0218 30007KT 8000 NSC TEMPO 0112/0116 06007KT TEMPO 0117/0120 36007KT PROB30 TEMPO 0121/0205 5000 HZ

Observacions i pronòstics meteorològics de més de 4000 aeroports (METAR i TAF).

Les estacions disponibles són els punts grocs i vermells al mapa.

Posi el ratolí al punt desitjat per veure el nom de l'estació.

Feu clic per veure les observacions i els pronòstics meteorològics.

Per canviar el mapa: feu clic els botons verds amb una creu de color negre per apropar; al botó verd amb un guió per allunyar la imatge; o en les fletxes verdes per a mapes adjacents.


METAR-TAF: